createdAt,value
2023-03-03T00:04:42.205Z,81.97
2023-03-03T00:09:38.172Z,82.25
2023-03-03T00:14:32.327Z,81.33
2023-03-03T00:19:24.638Z,81.20
2023-03-03T00:24:22.233Z,82.11
2023-03-03T00:29:29.577Z,81.19
2023-03-03T00:34:32.685Z,81.83
2023-03-03T00:39:36.403Z,81.30
2023-03-03T00:44:46.851Z,82.33
2023-03-03T00:49:37.571Z,82.05
2023-03-03T00:54:34.607Z,80.79
2023-03-03T00:59:25.892Z,81.58
2023-03-03T01:04:20.521Z,81.52
2023-03-03T01:09:14.813Z,81.23
2023-03-03T01:14:09.623Z,81.44
2023-03-03T01:19:04.676Z,80.82
2023-03-03T01:23:54.680Z,80.83
2023-03-03T01:28:44.292Z,79.96
2023-03-03T01:33:38.174Z,82.67
2023-03-03T01:38:27.942Z,82.86
2023-03-03T01:43:19.956Z,83.53
2023-03-03T01:48:14.925Z,83.67
2023-03-03T01:53:21.657Z,83.60
2023-03-03T01:58:16.988Z,83.77
2023-03-03T02:03:08.279Z,85.83
2023-03-03T02:07:59.926Z,87.37
2023-03-03T02:12:56.527Z,87.94
2023-03-03T02:17:46.694Z,89.26
2023-03-03T02:22:44.797Z,88.63
2023-03-03T02:27:45.454Z,88.04
2023-03-03T02:32:40.029Z,87.66
2023-03-03T02:37:37.835Z,88.15
2023-03-03T02:42:39.010Z,86.83
2023-03-03T02:47:33.768Z,87.11
2023-03-03T02:52:30.050Z,87.09
2023-03-03T02:57:19.831Z,85.76
2023-03-03T03:02:13.274Z,85.47
2023-03-03T03:07:09.994Z,85.53
2023-03-03T03:12:06.038Z,84.88
2023-03-03T03:17:07.081Z,84.09
2023-03-03T03:22:00.021Z,83.61
2023-03-03T03:26:55.148Z,83.13
2023-03-03T03:31:49.014Z,84.47
2023-03-03T03:36:42.433Z,82.95
2023-03-03T03:41:33.774Z,83.11
2023-03-03T03:46:27.327Z,83.50
2023-03-03T03:51:20.003Z,84.04
2023-03-03T03:56:14.823Z,85.25
2023-03-03T04:01:10.988Z,84.86
2023-03-03T04:06:35.258Z,86.90
2023-03-03T04:11:27.864Z,87.26
2023-03-03T04:16:18.183Z,88.23
2023-03-03T04:21:17.220Z,83.68
2023-03-03T04:26:16.811Z,81.78
2023-03-03T04:31:18.091Z,83.17
2023-03-03T04:36:14.739Z,85.42
2023-03-03T04:41:09.904Z,84.61
2023-03-03T04:46:06.580Z,85.87
2023-03-03T04:50:58.072Z,86.42
2023-03-03T04:55:56.955Z,84.61
2023-03-03T05:00:54.962Z,81.38
2023-03-03T05:05:54.840Z,87.72
2023-03-03T05:10:49.385Z,91.27
2023-03-03T05:15:49.263Z,93.29
2023-03-03T05:20:44.742Z,94.65
2023-03-03T05:25:36.855Z,95.83
2023-03-03T05:30:30.277Z,96.91
2023-03-03T05:35:23.560Z,97.22
2023-03-03T05:40:21.958Z,97.87
2023-03-03T05:45:18.507Z,98.51
2023-03-03T05:50:12.800Z,98.39
2023-03-03T05:55:21.239Z,98.87
2023-03-03T06:00:24.673Z,99.43
2023-03-03T06:05:18.653Z,99.83
2023-03-03T06:10:18.834Z,100.00
2023-03-03T06:15:20.049Z,100.00
2023-03-03T06:20:23.163Z,100.00
2023-03-03T06:25:25.047Z,100.00
2023-03-03T06:30:19.530Z,100.00
2023-03-03T06:35:14.734Z,100.00
2023-03-03T06:40:06.649Z,100.00
2023-03-03T06:45:08.467Z,100.00
2023-03-03T06:50:10.554Z,100.00
2023-03-03T06:55:04.555Z,100.00
2023-03-03T07:00:02.724Z,100.00
2023-03-03T07:04:58.891Z,100.00
2023-03-03T07:09:50.953Z,100.00
2023-03-03T07:14:47.000Z,100.00
2023-03-03T07:20:06.857Z,100.00
2023-03-03T07:25:06.675Z,100.00
2023-03-03T07:30:04.664Z,100.00
2023-03-03T07:34:58.953Z,100.00
2023-03-03T07:39:59.090Z,100.00
2023-03-03T07:45:00.771Z,100.00
2023-03-03T07:49:57.777Z,100.00
2023-03-03T07:54:56.182Z,100.00
2023-03-03T07:59:52.631Z,100.00
2023-03-03T08:04:50.970Z,100.00
2023-03-03T08:09:47.819Z,100.00
2023-03-03T08:14:57.541Z,100.00
2023-03-03T08:19:52.140Z,100.00
2023-03-03T08:24:48.167Z,100.00
2023-03-03T08:29:48.605Z,100.00
2023-03-03T08:34:42.931Z,100.00
2023-03-03T08:39:33.121Z,100.00
2023-03-03T08:44:35.114Z,100.00
2023-03-03T08:49:28.173Z,100.00
2023-03-03T08:54:21.501Z,100.00
2023-03-03T09:04:28.452Z,100.00
2023-03-03T09:09:25.514Z,100.00
2023-03-03T09:14:17.091Z,100.00
2023-03-03T09:19:28.108Z,100.00
2023-03-03T09:24:34.154Z,100.00
2023-03-03T09:29:38.419Z,98.67
2023-03-03T09:34:46.031Z,97.37
2023-03-03T09:39:46.471Z,96.39
2023-03-03T09:45:06.739Z,96.54
2023-03-03T09:50:29.773Z,95.94
2023-03-03T09:55:45.345Z,94.99
2023-03-03T10:00:52.714Z,95.06
2023-03-03T10:05:58.133Z,93.44
2023-03-03T10:11:13.878Z,91.83
2023-03-03T10:16:38.720Z,90.81
2023-03-03T10:21:53.355Z,90.46
2023-03-03T10:27:12.940Z,88.03
2023-03-03T10:32:32.643Z,85.97
2023-03-03T10:37:39.053Z,85.05
2023-03-03T10:43:08.877Z,83.86
2023-03-03T10:48:23.910Z,82.29
2023-03-03T10:53:36.131Z,81.26
2023-03-03T10:59:01.346Z,81.21
2023-03-03T11:04:22.771Z,79.63
2023-03-03T11:09:51.952Z,79.80
2023-03-03T11:14:58.974Z,78.54
2023-03-03T11:20:08.306Z,77.22
2023-03-03T11:25:23.333Z,77.22
2023-03-03T11:30:39.577Z,74.27
2023-03-03T11:35:43.211Z,72.05
2023-03-03T11:40:54.685Z,69.42
2023-03-03T11:45:53.615Z,64.48
2023-03-03T11:50:50.102Z,65.10
2023-03-03T11:55:45.112Z,62.51
2023-03-03T12:00:49.439Z,64.32
2023-03-03T12:05:50.274Z,64.98
2023-03-03T12:10:49.461Z,62.44
2023-03-03T12:15:56.964Z,62.36
2023-03-03T12:20:55.659Z,61.57
2023-03-03T12:25:47.056Z,60.72
2023-03-03T12:30:47.456Z,61.31
2023-03-03T12:35:50.523Z,57.31
2023-03-03T12:40:55.972Z,60.30
2023-03-03T12:45:54.029Z,57.82
2023-03-03T12:50:49.647Z,57.47
2023-03-03T12:55:51.067Z,58.34
2023-03-03T13:00:54.917Z,55.29
2023-03-03T13:06:03.402Z,54.61
2023-03-03T13:10:58.227Z,53.45
2023-03-03T13:16:08.975Z,55.02
2023-03-03T13:21:02.990Z,53.15
2023-03-03T13:25:56.133Z,51.71
2023-03-03T13:30:51.644Z,53.25
2023-03-03T13:35:52.100Z,52.85
2023-03-03T13:40:47.015Z,55.58
2023-03-03T13:45:54.190Z,51.99
2023-03-03T13:50:53.321Z,51.24
2023-03-03T13:55:46.771Z,52.21
2023-03-03T14:00:49.891Z,52.40
2023-03-03T14:05:47.855Z,53.25
2023-03-03T14:10:43.958Z,54.94
2023-03-03T14:15:41.721Z,52.13
2023-03-03T14:20:35.410Z,49.21
2023-03-03T14:25:50.782Z,50.72
2023-03-03T14:31:03.257Z,52.21
2023-03-03T14:35:54.311Z,49.80
2023-03-03T14:40:46.226Z,50.31
2023-03-03T14:45:41.386Z,52.18
2023-03-03T14:50:39.275Z,54.45
2023-03-03T14:55:38.090Z,52.95
2023-03-03T15:00:36.396Z,52.84
2023-03-03T15:05:36.996Z,53.14
2023-03-03T15:10:39.259Z,51.51
2023-03-03T15:15:30.647Z,52.37
2023-03-03T15:20:43.435Z,54.20
2023-03-03T15:26:00.728Z,55.45
2023-03-03T15:30:56.519Z,54.07
2023-03-03T15:35:52.744Z,53.59
2023-03-03T15:40:53.054Z,52.05
2023-03-03T15:46:03.360Z,56.02
2023-03-03T15:51:13.461Z,53.92
2023-03-03T15:56:10.624Z,54.51
2023-03-03T16:01:11.165Z,55.25
2023-03-03T16:06:12.063Z,54.75
2023-03-03T16:11:15.014Z,54.46
2023-03-03T16:16:13.663Z,56.20
2023-03-03T16:21:16.782Z,56.03
2023-03-03T16:26:31.599Z,56.77
2023-03-03T16:31:34.839Z,57.17
2023-03-03T16:36:37.363Z,57.39
2023-03-03T16:41:35.033Z,58.42
2023-03-03T16:46:37.411Z,59.17
2023-03-03T16:51:52.063Z,58.77
2023-03-03T16:56:56.819Z,61.48
2023-03-03T17:01:54.087Z,62.20
2023-03-03T17:07:03.952Z,60.80
2023-03-03T17:12:12.360Z,59.30
2023-03-03T17:17:12.614Z,61.59
2023-03-03T17:22:15.933Z,56.93
2023-03-03T17:27:24.903Z,56.90
2023-03-03T17:32:28.064Z,56.25
2023-03-03T17:37:35.008Z,55.76
2023-03-03T17:42:30.944Z,56.06
2023-03-03T17:47:28.051Z,56.44
2023-03-03T17:52:33.226Z,55.98
2023-03-03T17:57:46.756Z,56.20
2023-03-03T18:02:56.966Z,58.03
2023-03-03T18:07:56.708Z,56.58
2023-03-03T18:12:56.265Z,57.67
2023-03-03T18:17:59.148Z,57.00
2023-03-03T18:22:53.824Z,57.86
2023-03-03T18:27:53.610Z,56.45
2023-03-03T18:32:44.732Z,57.34
2023-03-03T18:37:44.310Z,57.45
2023-03-03T18:42:50.131Z,57.54
2023-03-03T18:48:07.754Z,57.60
2023-03-03T18:53:14.209Z,58.91
2023-03-03T18:58:33.018Z,59.75
2023-03-03T19:03:30.873Z,59.10
2023-03-03T19:08:34.218Z,59.42
2023-03-03T19:13:41.774Z,59.48
2023-03-03T19:19:00.694Z,59.19
2023-03-03T19:24:00.245Z,58.72
2023-03-03T19:28:55.486Z,57.70
2023-03-03T19:33:56.820Z,59.10
2023-03-03T19:38:57.770Z,58.46
2023-03-03T19:43:54.472Z,58.66
2023-03-03T19:48:58.083Z,59.90
2023-03-03T19:53:59.666Z,60.88
2023-03-03T19:58:58.410Z,61.66
2023-03-03T20:04:07.393Z,61.85
2023-03-03T20:09:08.375Z,62.73
2023-03-03T20:14:08.358Z,62.13
2023-03-03T20:19:21.127Z,62.26
2023-03-03T20:24:29.467Z,61.22
2023-03-03T20:29:40.144Z,61.20
2023-03-03T20:34:37.622Z,61.54
2023-03-03T20:39:45.617Z,61.65
2023-03-03T20:44:46.852Z,62.68
2023-03-03T20:49:48.295Z,62.44
2023-03-03T20:54:53.882Z,62.20
2023-03-03T20:59:51.212Z,61.94
2023-03-03T21:04:44.071Z,61.83
2023-03-03T21:09:41.269Z,61.71
2023-03-03T21:14:37.563Z,62.16
2023-03-03T21:19:29.946Z,62.43
2023-03-03T21:24:24.237Z,62.25
2023-03-03T21:29:19.867Z,62.33
2023-03-03T21:34:24.159Z,62.04
2023-03-03T21:39:33.040Z,61.89
2023-03-03T21:44:37.331Z,62.31
2023-03-03T21:49:37.979Z,62.23
2023-03-03T21:54:27.636Z,62.48
2023-03-03T21:59:18.569Z,62.36
2023-03-03T22:04:10.929Z,63.82
2023-03-03T22:09:09.015Z,64.96
2023-03-03T22:14:00.621Z,62.98
2023-03-03T22:19:03.544Z,62.81
2023-03-03T22:23:55.818Z,63.29
2023-03-03T22:28:50.296Z,65.39
2023-03-03T22:33:40.939Z,65.58
2023-03-03T22:38:34.380Z,65.76
2023-03-03T22:43:44.916Z,65.94
2023-03-03T22:48:38.358Z,64.19
2023-03-03T22:53:29.372Z,63.42
2023-03-03T22:58:25.704Z,63.47
2023-03-03T23:03:16.234Z,63.66
2023-03-03T23:08:09.468Z,63.52
2023-03-03T23:13:00.628Z,63.88
2023-03-03T23:17:51.352Z,63.65
2023-03-03T23:23:01.625Z,63.18
2023-03-03T23:27:57.793Z,63.23
2023-03-03T23:32:53.995Z,62.92
2023-03-03T23:37:51.820Z,62.91
2023-03-03T23:42:45.770Z,63.41
2023-03-03T23:47:38.956Z,63.59
2023-03-03T23:52:31.636Z,63.83
2023-03-03T23:57:32.372Z,63.72
